sensor_id;sensor_type;location;lat;lon;timestamp;pressure;altitude;pressure_sealevel;temperature;humidity
54172;BME280;40076;52.354;4.970;2022-08-11T00:00:37;102417.88;;;22.99;73.50
54172;BME280;40076;52.354;4.970;2022-08-11T00:03:08;102410.72;;;22.94;73.37
54172;BME280;40076;52.354;4.970;2022-08-11T00:05:48;102417.31;;;22.90;73.24
54172;BME280;40076;52.354;4.970;2022-08-11T00:08:21;102414.06;;;22.84;73.06
54172;BME280;40076;52.354;4.970;2022-08-11T00:11:04;102417.53;;;22.81;73.30
54172;BME280;40076;52.354;4.970;2022-08-11T00:13:38;102415.16;;;22.80;73.33
54172;BME280;40076;52.354;4.970;2022-08-11T00:16:11;102416.25;;;22.75;73.32
54172;BME280;40076;52.354;4.970;2022-08-11T00:18:42;102413.84;;;22.74;73.44
54172;BME280;40076;52.354;4.970;2022-08-11T00:21:09;102417.41;;;22.74;73.36
54172;BME280;40076;52.354;4.970;2022-08-11T00:23:41;102412.59;;;22.71;73.39
54172;BME280;40076;52.354;4.970;2022-08-11T00:26:07;102416.88;;;22.68;73.37
54172;BME280;40076;52.354;4.970;2022-08-11T00:28:34;102413.31;;;22.68;73.37
54172;BME280;40076;52.354;4.970;2022-08-11T00:31:08;102418.38;;;22.66;73.36
54172;BME280;40076;52.354;4.970;2022-08-11T00:33:40;102423.13;;;22.65;73.70
54172;BME280;40076;52.354;4.970;2022-08-11T00:36:08;102430.16;;;22.63;73.79
54172;BME280;40076;52.354;4.970;2022-08-11T00:38:37;102425.78;;;22.62;73.83
54172;BME280;40076;52.354;4.970;2022-08-11T00:41:27;102422.59;;;22.60;73.94
54172;BME280;40076;52.354;4.970;2022-08-11T00:44:06;102418.63;;;22.57;73.80
54172;BME280;40076;52.354;4.970;2022-08-11T00:50:16;102427.91;;;22.49;73.90
54172;BME280;40076;52.354;4.970;2022-08-11T00:59:07;102419.50;;;22.42;74.38
54172;BME280;40076;52.354;4.970;2022-08-11T01:01:56;102417.44;;;22.39;74.56
54172;BME280;40076;52.354;4.970;2022-08-11T01:08:17;102419.69;;;22.33;75.08
54172;BME280;40076;52.354;4.970;2022-08-11T01:10:54;102415.00;;;22.34;74.99
54172;BME280;40076;52.354;4.970;2022-08-11T01:21:39;102411.28;;;22.26;75.74
54172;BME280;40076;52.354;4.970;2022-08-11T01:30:09;102413.09;;;22.19;75.86
54172;BME280;40076;52.354;4.970;2022-08-11T01:35:43;102407.41;;;22.12;76.37
54172;BME280;40076;52.354;4.970;2022-08-11T01:41:21;102408.13;;;22.09;76.36
54172;BME280;40076;52.354;4.970;2022-08-11T01:44:08;102405.38;;;22.09;76.47
54172;BME280;40076;52.354;4.970;2022-08-11T01:46:56;102400.22;;;22.07;76.76
54172;BME280;40076;52.354;4.970;2022-08-11T01:49:34;102408.03;;;22.05;76.83
54172;BME280;40076;52.354;4.970;2022-08-11T01:52:21;102401.31;;;22.03;76.67
54172;BME280;40076;52.354;4.970;2022-08-11T01:55:05;102401.91;;;21.96;76.92
54172;BME280;40076;52.354;4.970;2022-08-11T01:57:46;102403.44;;;21.93;76.91
54172;BME280;40076;52.354;4.970;2022-08-11T02:00:18;102401.47;;;21.94;77.18
54172;BME280;40076;52.354;4.970;2022-08-11T02:03:33;102397.13;;;21.93;77.29
54172;BME280;40076;52.354;4.970;2022-08-11T02:10:54;102397.81;;;21.90;77.06
54172;BME280;40076;52.354;4.970;2022-08-11T02:13:51;102386.41;;;21.88;77.07
54172;BME280;40076;52.354;4.970;2022-08-11T02:19:19;102387.91;;;21.85;77.07
54172;BME280;40076;52.354;4.970;2022-08-11T02:22:15;102394.09;;;21.82;77.00
54172;BME280;40076;52.354;4.970;2022-08-11T02:25:09;102390.50;;;21.78;77.26
54172;BME280;40076;52.354;4.970;2022-08-11T02:28:00;102390.41;;;21.75;77.67
54172;BME280;40076;52.354;4.970;2022-08-11T02:30:31;102386.44;;;21.72;77.58
54172;BME280;40076;52.354;4.970;2022-08-11T02:33:17;102387.56;;;21.71;77.47
54172;BME280;40076;52.354;4.970;2022-08-11T02:36:07;102392.63;;;21.69;77.63
54172;BME280;40076;52.354;4.970;2022-08-11T02:39:00;102387.47;;;21.68;77.71
54172;BME280;40076;52.354;4.970;2022-08-11T02:44:26;102390.97;;;21.65;77.49
54172;BME280;40076;52.354;4.970;2022-08-11T02:49:55;102390.06;;;21.61;77.29
54172;BME280;40076;52.354;4.970;2022-08-11T02:52:55;102384.13;;;21.59;77.30
54172;BME280;40076;52.354;4.970;2022-08-11T02:55:31;102380.59;;;21.58;77.15
54172;BME280;40076;52.354;4.970;2022-08-11T02:58:13;102385.19;;;21.54;77.55
54172;BME280;40076;52.354;4.970;2022-08-11T03:00:54;102383.59;;;21.53;77.62
54172;BME280;40076;52.354;4.970;2022-08-11T03:06:48;102374.13;;;21.50;77.68
54172;BME280;40076;52.354;4.970;2022-08-11T03:09:45;102369.78;;;21.49;77.61
54172;BME280;40076;52.354;4.970;2022-08-11T03:12:39;102373.22;;;21.46;77.75
54172;BME280;40076;52.354;4.970;2022-08-11T03:15:31;102368.44;;;21.43;78.04
54172;BME280;40076;52.354;4.970;2022-08-11T03:18:27;102373.50;;;21.41;78.20
54172;BME280;40076;52.354;4.970;2022-08-11T03:23:36;102371.09;;;21.40;78.65
54172;BME280;40076;52.354;4.970;2022-08-11T03:26:14;102366.28;;;21.37;78.96
54172;BME280;40076;52.354;4.970;2022-08-11T03:29:22;102366.66;;;21.35;78.91
54172;BME280;40076;52.354;4.970;2022-08-11T03:34:22;102364.28;;;21.34;78.66
54172;BME280;40076;52.354;4.970;2022-08-11T03:42:52;102357.44;;;21.28;77.77
54172;BME280;40076;52.354;4.970;2022-08-11T03:45:29;102358.50;;;21.23;77.00
54172;BME280;40076;52.354;4.970;2022-08-11T03:48:08;102357.28;;;21.21;77.39
54172;BME280;40076;52.354;4.970;2022-08-11T03:54:10;102362.31;;;21.18;77.69
54172;BME280;40076;52.354;4.970;2022-08-11T03:57:00;102363.13;;;21.19;78.09
54172;BME280;40076;52.354;4.970;2022-08-11T04:00:03;102361.03;;;21.16;78.37
54172;BME280;40076;52.354;4.970;2022-08-11T04:13:54;102370.69;;;21.10;79.49
54172;BME280;40076;52.354;4.970;2022-08-11T04:31:01;102367.59;;;20.96;80.56
54172;BME280;40076;52.354;4.970;2022-08-11T04:43:25;102363.75;;;20.85;81.46
54172;BME280;40076;52.354;4.970;2022-08-11T05:12:56;102356.06;;;20.62;83.10
54172;BME280;40076;52.354;4.970;2022-08-11T05:15:57;102362.28;;;20.59;83.35
54172;BME280;40076;52.354;4.970;2022-08-11T05:19:01;102356.66;;;20.56;83.57
54172;BME280;40076;52.354;4.970;2022-08-11T05:21:52;102356.22;;;20.54;84.09
54172;BME280;40076;52.354;4.970;2022-08-11T05:24:45;102365.59;;;20.53;84.46
54172;BME280;40076;52.354;4.970;2022-08-11T05:27:47;102364.03;;;20.52;84.90
54172;BME280;40076;52.354;4.970;2022-08-11T05:30:35;102366.31;;;20.50;85.08
54172;BME280;40076;52.354;4.970;2022-08-11T05:33:29;102365.50;;;20.49;85.40
54172;BME280;40076;52.354;4.970;2022-08-11T05:36:29;102364.38;;;20.50;85.73
54172;BME280;40076;52.354;4.970;2022-08-11T05:39:00;102369.50;;;20.52;85.75
54172;BME280;40076;52.354;4.970;2022-08-11T05:41:46;102370.75;;;20.54;86.05
54172;BME280;40076;52.354;4.970;2022-08-11T05:44:31;102377.03;;;20.55;86.29
54172;BME280;40076;52.354;4.970;2022-08-11T05:47:23;102369.59;;;20.55;86.23
54172;BME280;40076;52.354;4.970;2022-08-11T05:50:11;102375.56;;;20.57;85.82
54172;BME280;40076;52.354;4.970;2022-08-11T05:52:55;102382.66;;;20.58;85.58
54172;BME280;40076;52.354;4.970;2022-08-11T05:55:41;102372.47;;;20.59;84.98
54172;BME280;40076;52.354;4.970;2022-08-11T05:59:13;102376.00;;;20.59;84.88
54172;BME280;40076;52.354;4.970;2022-08-11T06:01:23;102384.34;;;20.63;84.19
54172;BME280;40076;52.354;4.970;2022-08-11T06:03:51;102387.75;;;20.60;84.31
54172;BME280;40076;52.354;4.970;2022-08-11T06:09:32;102377.69;;;20.64;84.13
54172;BME280;40076;52.354;4.970;2022-08-11T06:12:06;102373.47;;;20.66;84.44
54172;BME280;40076;52.354;4.970;2022-08-11T06:14:33;102388.06;;;20.70;84.67
54172;BME280;40076;52.354;4.970;2022-08-11T06:17:02;102383.03;;;20.72;85.07
54172;BME280;40076;52.354;4.970;2022-08-11T06:19:37;102389.78;;;20.75;85.20
54172;BME280;40076;52.354;4.970;2022-08-11T06:22:04;102383.91;;;20.76;85.56
54172;BME280;40076;52.354;4.970;2022-08-11T06:24:30;102393.41;;;20.79;85.97
54172;BME280;40076;52.354;4.970;2022-08-11T06:26:57;102379.69;;;20.79;86.17
54172;BME280;40076;52.354;4.970;2022-08-11T06:29:23;102386.44;;;20.82;85.95
54172;BME280;40076;52.354;4.970;2022-08-11T06:31:52;102386.06;;;20.83;85.60
54172;BME280;40076;52.354;4.970;2022-08-11T06:34:39;102381.81;;;20.86;85.27
54172;BME280;40076;52.354;4.970;2022-08-11T06:37:18;102390.41;;;20.84;84.47
54172;BME280;40076;52.354;4.970;2022-08-11T06:42:33;102386.16;;;20.87;84.70
54172;BME280;40076;52.354;4.970;2022-08-11T06:47:33;102383.53;;;20.90;84.79
54172;BME280;40076;52.354;4.970;2022-08-11T06:49:59;102396.91;;;20.92;84.77
54172;BME280;40076;52.354;4.970;2022-08-11T06:52:44;102390.72;;;20.95;84.53
54172;BME280;40076;52.354;4.970;2022-08-11T06:55:21;102391.50;;;20.95;83.80
54172;BME280;40076;52.354;4.970;2022-08-11T06:58:17;102384.53;;;20.98;83.00
54172;BME280;40076;52.354;4.970;2022-08-11T07:01:08;102390.78;;;20.98;82.13
54172;BME280;40076;52.354;4.970;2022-08-11T07:03:39;102383.34;;;20.99;82.25
54172;BME280;40076;52.354;4.970;2022-08-11T07:14:55;102377.97;;;21.02;81.45
54172;BME280;40076;52.354;4.970;2022-08-11T07:17:43;102378.41;;;21.04;80.94
54172;BME280;40076;52.354;4.970;2022-08-11T07:20:14;102372.53;;;21.06;80.30
54172;BME280;40076;52.354;4.970;2022-08-11T07:23:00;102382.03;;;21.08;79.64
54172;BME280;40076;52.354;4.970;2022-08-11T07:25:50;102377.34;;;21.09;78.60
54172;BME280;40076;52.354;4.970;2022-08-11T07:28:40;102375.84;;;21.11;78.27
54172;BME280;40076;52.354;4.970;2022-08-11T07:34:16;102375.25;;;21.18;77.73
54172;BME280;40076;52.354;4.970;2022-08-11T07:36:52;102372.97;;;21.20;77.77
54172;BME280;40076;52.354;4.970;2022-08-11T07:39:21;102370.63;;;21.22;77.91
54172;BME280;40076;52.354;4.970;2022-08-11T07:41:48;102366.50;;;21.28;77.28
54172;BME280;40076;52.354;4.970;2022-08-11T07:44:16;102362.22;;;21.31;76.51
54172;BME280;40076;52.354;4.970;2022-08-11T07:46:44;102369.41;;;21.35;76.66
54172;BME280;40076;52.354;4.970;2022-08-11T07:49:31;102364.34;;;21.37;76.27
54172;BME280;40076;52.354;4.970;2022-08-11T07:52:15;102368.78;;;21.42;75.61
54172;BME280;40076;52.354;4.970;2022-08-11T07:55:00;102371.63;;;21.45;75.50
54172;BME280;40076;52.354;4.970;2022-08-11T07:57:28;102367.38;;;21.48;75.48
54172;BME280;40076;52.354;4.970;2022-08-11T08:00:13;102364.34;;;21.53;75.19
54172;BME280;40076;52.354;4.970;2022-08-11T08:02:58;102367.19;;;21.56;75.04
54172;BME280;40076;52.354;4.970;2022-08-11T08:05:44;102365.31;;;21.61;74.58
54172;BME280;40076;52.354;4.970;2022-08-11T08:08:30;102372.50;;;21.65;73.90
54172;BME280;40076;52.354;4.970;2022-08-11T08:11:14;102370.97;;;21.68;74.16
54172;BME280;40076;52.354;4.970;2022-08-11T08:13:58;102376.22;;;21.73;74.16
54172;BME280;40076;52.354;4.970;2022-08-11T08:16:43;102368.84;;;21.77;74.32
54172;BME280;40076;52.354;4.970;2022-08-11T08:19:28;102376.03;;;21.81;73.41
54172;BME280;40076;52.354;4.970;2022-08-11T08:21:55;102378.84;;;21.85;72.93
54172;BME280;40076;52.354;4.970;2022-08-11T08:24:21;102374.59;;;21.87;72.59
54172;BME280;40076;52.354;4.970;2022-08-11T08:26:47;102377.84;;;21.93;72.79
54172;BME280;40076;52.354;4.970;2022-08-11T08:29:23;102371.66;;;21.96;73.00
54172;BME280;40076;52.354;4.970;2022-08-11T08:32:08;102378.03;;;22.00;73.02
54172;BME280;40076;52.354;4.970;2022-08-11T08:34:36;102377.69;;;22.02;72.03
54172;BME280;40076;52.354;4.970;2022-08-11T08:37:02;102379.34;;;22.06;72.13
54172;BME280;40076;52.354;4.970;2022-08-11T08:39:30;102380.25;;;22.10;71.83
54172;BME280;40076;52.354;4.970;2022-08-11T08:41:59;102378.34;;;22.14;71.19
54172;BME280;40076;52.354;4.970;2022-08-11T08:44:26;102370.19;;;22.18;71.46
54172;BME280;40076;52.354;4.970;2022-08-11T08:46:54;102384.47;;;22.23;71.21
54172;BME280;40076;52.354;4.970;2022-08-11T08:49:36;102386.13;;;22.28;71.09
54172;BME280;40076;52.354;4.970;2022-08-11T08:52:05;102381.84;;;22.30;70.39
54172;BME280;40076;52.354;4.970;2022-08-11T08:54:41;102374.84;;;22.33;70.26
54172;BME280;40076;52.354;4.970;2022-08-11T08:57:11;102384.75;;;22.38;70.10
54172;BME280;40076;52.354;4.970;2022-08-11T08:59:40;102378.19;;;22.42;69.88
54172;BME280;40076;52.354;4.970;2022-08-11T09:02:07;102376.63;;;22.45;68.22
54172;BME280;40076;52.354;4.970;2022-08-11T09:04:38;102376.38;;;22.50;67.91
54172;BME280;40076;52.354;4.970;2022-08-11T09:07:12;102373.31;;;22.55;68.13
54172;BME280;40076;52.354;4.970;2022-08-11T09:09:43;102374.16;;;22.59;66.16
54172;BME280;40076;52.354;4.970;2022-08-11T09:12:10;102366.41;;;22.64;66.44
54172;BME280;40076;52.354;4.970;2022-08-11T09:14:38;102368.06;;;22.69;66.29
54172;BME280;40076;52.354;4.970;2022-08-11T09:17:23;102374.91;;;22.75;66.28
54172;BME280;40076;52.354;4.970;2022-08-11T09:19:53;102367.16;;;22.81;66.57
54172;BME280;40076;52.354;4.970;2022-08-11T09:22:23;102366.84;;;22.86;66.36
54172;BME280;40076;52.354;4.970;2022-08-11T09:25:08;102364.16;;;22.89;65.92
54172;BME280;40076;52.354;4.970;2022-08-11T09:27:53;102364.22;;;22.93;66.34
54172;BME280;40076;52.354;4.970;2022-08-11T09:30:22;102365.47;;;22.95;66.28
54172;BME280;40076;52.354;4.970;2022-08-11T09:32:55;102355.63;;;22.98;65.74
54172;BME280;40076;52.354;4.970;2022-08-11T09:35:25;102362.84;;;23.02;65.41
54172;BME280;40076;52.354;4.970;2022-08-11T09:37:51;102361.28;;;23.05;64.63
54172;BME280;40076;52.354;4.970;2022-08-11T09:40:37;102362.53;;;23.07;64.04
54172;BME280;40076;52.354;4.970;2022-08-11T09:43:05;102362.59;;;23.11;63.53
54172;BME280;40076;52.354;4.970;2022-08-11T09:45:53;102366.56;;;23.14;63.09
54172;BME280;40076;52.354;4.970;2022-08-11T09:48:22;102359.97;;;23.18;63.20
54172;BME280;40076;52.354;4.970;2022-08-11T09:50:51;102360.81;;;23.22;62.63
54172;BME280;40076;52.354;4.970;2022-08-11T09:53:18;102356.94;;;23.27;62.00
54172;BME280;40076;52.354;4.970;2022-08-11T09:55:45;102360.13;;;23.29;61.63
54172;BME280;40076;52.354;4.970;2022-08-11T09:58:11;102358.63;;;23.35;61.94
54172;BME280;40076;52.354;4.970;2022-08-11T10:00:37;102357.97;;;23.41;61.67
54172;BME280;40076;52.354;4.970;2022-08-11T10:03:12;102360.78;;;23.45;62.02
54172;BME280;40076;52.354;4.970;2022-08-11T10:05:43;102358.13;;;23.49;62.00
54172;BME280;40076;52.354;4.970;2022-08-11T10:08:29;102355.47;;;23.56;62.14
54172;BME280;40076;52.354;4.970;2022-08-11T10:10:58;102351.97;;;23.59;62.38
54172;BME280;40076;52.354;4.970;2022-08-11T10:13:31;102349.69;;;23.64;62.34
54172;BME280;40076;52.354;4.970;2022-08-11T10:16:23;102344.22;;;23.68;61.51
54172;BME280;40076;52.354;4.970;2022-08-11T10:18:50;102347.44;;;23.73;61.43
54172;BME280;40076;52.354;4.970;2022-08-11T10:21:35;102343.22;;;23.79;61.63
54172;BME280;40076;52.354;4.970;2022-08-11T10:24:02;102336.13;;;23.82;61.62
54172;BME280;40076;52.354;4.970;2022-08-11T10:26:48;102336.63;;;23.88;61.06
54172;BME280;40076;52.354;4.970;2022-08-11T10:29:40;102337.09;;;23.93;61.42
54172;BME280;40076;52.354;4.970;2022-08-11T10:32:25;102339.50;;;23.98;61.23
54172;BME280;40076;52.354;4.970;2022-08-11T10:35:10;102337.63;;;24.02;61.03
54172;BME280;40076;52.354;4.970;2022-08-11T10:37:38;102328.19;;;24.07;60.87
54172;BME280;40076;52.354;4.970;2022-08-11T10:40:05;102331.78;;;24.11;60.58
54172;BME280;40076;52.354;4.970;2022-08-11T10:42:32;102332.28;;;24.16;60.09
54172;BME280;40076;52.354;4.970;2022-08-11T10:45:16;102325.28;;;24.22;60.77
54172;BME280;40076;52.354;4.970;2022-08-11T10:48:03;102330.81;;;24.26;60.60
54172;BME280;40076;52.354;4.970;2022-08-11T10:50:32;102326.94;;;24.31;60.08
54172;BME280;40076;52.354;4.970;2022-08-11T10:53:17;102324.63;;;24.33;59.40
54172;BME280;40076;52.354;4.970;2022-08-11T10:56:04;102317.50;;;24.35;59.64
54172;BME280;40076;52.354;4.970;2022-08-11T10:58:50;102323.91;;;24.39;59.85
54172;BME280;40076;52.354;4.970;2022-08-11T11:01:28;102314.84;;;24.42;59.74
54172;BME280;40076;52.354;4.970;2022-08-11T11:04:03;102320.41;;;24.46;60.26
54172;BME280;40076;52.354;4.970;2022-08-11T11:09:15;102309.44;;;24.53;60.92
54172;BME280;40076;52.354;4.970;2022-08-11T11:11:46;102308.72;;;24.59;60.80
54172;BME280;40076;52.354;4.970;2022-08-11T11:14:31;102306.78;;;24.64;60.39
54172;BME280;40076;52.354;4.970;2022-08-11T11:17:36;102303.69;;;24.69;60.06
54172;BME280;40076;52.354;4.970;2022-08-11T11:20:32;102309.31;;;24.79;59.99
54172;BME280;40076;52.354;4.970;2022-08-11T11:23:17;102301.78;;;24.80;59.96
54172;BME280;40076;52.354;4.970;2022-08-11T11:31:12;102297.69;;;25.00;58.99
54172;BME280;40076;52.354;4.970;2022-08-11T11:36:50;102300.56;;;25.18;57.46
54172;BME280;40076;52.354;4.970;2022-08-11T11:39:27;102295.50;;;25.27;55.68
54172;BME280;40076;52.354;4.970;2022-08-11T11:41:56;102292.00;;;25.33;55.31
54172;BME280;40076;52.354;4.970;2022-08-11T11:44:23;102292.47;;;25.43;54.70
54172;BME280;40076;52.354;4.970;2022-08-11T11:46:50;102292.50;;;25.50;53.43
54172;BME280;40076;52.354;4.970;2022-08-11T11:49:19;102289.44;;;25.58;53.03
54172;BME280;40076;52.354;4.970;2022-08-11T11:51:48;102287.09;;;25.67;52.80
54172;BME280;40076;52.354;4.970;2022-08-11T11:54:18;102288.75;;;25.75;51.53
54172;BME280;40076;52.354;4.970;2022-08-11T11:56:45;102282.84;;;25.84;50.90
54172;BME280;40076;52.354;4.970;2022-08-11T11:59:11;102280.91;;;25.92;50.70
54172;BME280;40076;52.354;4.970;2022-08-11T12:01:57;102277.78;;;26.00;49.93
54172;BME280;40076;52.354;4.970;2022-08-11T12:04:23;102271.47;;;26.07;49.79
54172;BME280;40076;52.354;4.970;2022-08-11T12:06:50;102275.06;;;26.14;49.14
54172;BME280;40076;52.354;4.970;2022-08-11T12:09:35;102272.34;;;26.25;48.38
54172;BME280;40076;52.354;4.970;2022-08-11T12:12:01;102268.81;;;26.32;47.71
54172;BME280;40076;52.354;4.970;2022-08-11T12:14:54;102269.22;;;26.41;47.41
54172;BME280;40076;52.354;4.970;2022-08-11T12:17:25;102266.44;;;26.48;46.91
54172;BME280;40076;52.354;4.970;2022-08-11T12:19:51;102266.47;;;26.55;46.68
54172;BME280;40076;52.354;4.970;2022-08-11T12:22:17;102265.69;;;26.62;45.35
54172;BME280;40076;52.354;4.970;2022-08-11T12:25:02;102261.75;;;26.70;45.55
54172;BME280;40076;52.354;4.970;2022-08-11T12:27:46;102254.63;;;26.76;45.54
54172;BME280;40076;52.354;4.970;2022-08-11T12:30:12;102255.41;;;26.83;46.28
54172;BME280;40076;52.354;4.970;2022-08-11T12:32:39;102253.47;;;26.91;46.65
54172;BME280;40076;52.354;4.970;2022-08-11T12:35:05;102246.72;;;26.99;46.86
54172;BME280;40076;52.354;4.970;2022-08-11T12:37:41;102243.91;;;27.10;46.98
54172;BME280;40076;52.354;4.970;2022-08-11T12:40:11;102239.16;;;27.17;46.54
54172;BME280;40076;52.354;4.970;2022-08-11T12:42:59;102235.97;;;27.26;46.28
54172;BME280;40076;52.354;4.970;2022-08-11T12:45:46;102231.97;;;27.34;46.67
54172;BME280;40076;52.354;4.970;2022-08-11T12:48:14;102239.91;;;27.43;46.05
54172;BME280;40076;52.354;4.970;2022-08-11T12:51:06;102227.56;;;27.51;45.80
54172;BME280;40076;52.354;4.970;2022-08-11T12:53:54;102224.00;;;27.57;45.47
54172;BME280;40076;52.354;4.970;2022-08-11T12:56:21;102217.63;;;27.64;44.33
54172;BME280;40076;52.354;4.970;2022-08-11T12:59:07;102216.44;;;27.69;43.80
54172;BME280;40076;52.354;4.970;2022-08-11T13:01:52;102221.56;;;27.74;42.73
54172;BME280;40076;52.354;4.970;2022-08-11T13:04:40;102223.91;;;27.79;42.08
54172;BME280;40076;52.354;4.970;2022-08-11T13:07:19;102217.53;;;27.85;41.99
54172;BME280;40076;52.354;4.970;2022-08-11T13:09:45;102223.09;;;27.89;42.12
54172;BME280;40076;52.354;4.970;2022-08-11T13:12:11;102221.47;;;27.95;42.17
54172;BME280;40076;52.354;4.970;2022-08-11T13:15:07;102209.91;;;28.00;41.38
54172;BME280;40076;52.354;4.970;2022-08-11T13:17:34;102209.91;;;28.03;40.20
54172;BME280;40076;52.354;4.970;2022-08-11T13:20:00;102205.91;;;28.08;40.02
54172;BME280;40076;52.354;4.970;2022-08-11T13:22:27;102209.06;;;28.14;40.11
54172;BME280;40076;52.354;4.970;2022-08-11T13:24:54;102211.44;;;28.19;39.65
54172;BME280;40076;52.354;4.970;2022-08-11T13:27:21;102214.56;;;28.24;39.70
54172;BME280;40076;52.354;4.970;2022-08-11T13:29:48;102202.66;;;28.27;39.23
54172;BME280;40076;52.354;4.970;2022-08-11T13:32:15;102205.78;;;28.33;39.35
54172;BME280;40076;52.354;4.970;2022-08-11T13:34:41;102207.34;;;28.37;39.34
54172;BME280;40076;52.354;4.970;2022-08-11T13:37:12;102203.34;;;28.42;38.79
54172;BME280;40076;52.354;4.970;2022-08-11T13:39:40;102201.28;;;28.50;38.35
54172;BME280;40076;52.354;4.970;2022-08-11T13:42:13;102193.69;;;28.54;38.04
54172;BME280;40076;52.354;4.970;2022-08-11T13:44:40;102200.03;;;28.58;37.86
54172;BME280;40076;52.354;4.970;2022-08-11T13:47:07;102200.38;;;28.63;38.03
54172;BME280;40076;52.354;4.970;2022-08-11T13:49:38;102188.44;;;28.66;37.46
54172;BME280;40076;52.354;4.970;2022-08-11T13:52:04;102186.81;;;28.69;37.35
54172;BME280;40076;52.354;4.970;2022-08-11T13:54:34;102186.41;;;28.70;36.83
54172;BME280;40076;52.354;4.970;2022-08-11T13:57:03;102180.44;;;28.75;36.75
54172;BME280;40076;52.354;4.970;2022-08-11T13:59:29;102180.41;;;28.79;37.16
54172;BME280;40076;52.354;4.970;2022-08-11T14:01:57;102180.38;;;28.83;35.79
54172;BME280;40076;52.354;4.970;2022-08-11T14:06:52;102177.88;;;28.92;36.18
54172;BME280;40076;52.354;4.970;2022-08-11T14:09:22;102173.50;;;28.94;35.16
54172;BME280;40076;52.354;4.970;2022-08-11T14:11:49;102168.69;;;28.98;35.40
54172;BME280;40076;52.354;4.970;2022-08-11T14:14:34;102175.00;;;29.02;35.66
54172;BME280;40076;52.354;4.970;2022-08-11T14:17:04;102171.41;;;29.05;35.46
54172;BME280;40076;52.354;4.970;2022-08-11T14:19:32;102166.16;;;29.11;35.69
54172;BME280;40076;52.354;4.970;2022-08-11T14:22:00;102163.34;;;29.14;35.35
54172;BME280;40076;52.354;4.970;2022-08-11T14:24:36;102157.75;;;29.18;35.90
54172;BME280;40076;52.354;4.970;2022-08-11T14:27:02;102153.34;;;29.21;35.87
54172;BME280;40076;52.354;4.970;2022-08-11T14:29:28;102152.50;;;29.24;35.89
54172;BME280;40076;52.354;4.970;2022-08-11T14:32:01;102144.53;;;29.26;34.44
54172;BME280;40076;52.354;4.970;2022-08-11T14:34:29;102156.84;;;29.28;34.70
54172;BME280;40076;52.354;4.970;2022-08-11T14:36:57;102136.09;;;29.33;34.97
54172;BME280;40076;52.354;4.970;2022-08-11T14:39:25;102135.28;;;29.36;34.66
54172;BME280;40076;52.354;4.970;2022-08-11T14:41:56;102138.88;;;29.36;34.81
54172;BME280;40076;52.354;4.970;2022-08-11T14:44:44;102132.44;;;29.39;34.62
54172;BME280;40076;52.354;4.970;2022-08-11T14:47:31;102132.84;;;29.41;34.94
54172;BME280;40076;52.354;4.970;2022-08-11T14:49:57;102134.41;;;29.42;35.10
54172;BME280;40076;52.354;4.970;2022-08-11T14:52:25;102131.56;;;29.46;35.37
54172;BME280;40076;52.354;4.970;2022-08-11T14:54:51;102132.31;;;29.50;35.20
54172;BME280;40076;52.354;4.970;2022-08-11T14:57:38;102129.47;;;29.53;34.97
54172;BME280;40076;52.354;4.970;2022-08-11T15:00:07;102126.66;;;29.57;34.98
54172;BME280;40076;52.354;4.970;2022-08-11T15:02:35;102128.97;;;29.62;34.70
54172;BME280;40076;52.354;4.970;2022-08-11T15:05:21;102125.34;;;29.65;35.19
54172;BME280;40076;52.354;4.970;2022-08-11T15:07:47;102120.16;;;29.67;34.85
54172;BME280;40076;52.354;4.970;2022-08-11T15:10:16;102124.47;;;29.72;35.01
54172;BME280;40076;52.354;4.970;2022-08-11T15:12:42;102125.19;;;29.76;35.32
54172;BME280;40076;52.354;4.970;2022-08-11T15:15:08;102112.78;;;29.80;35.79
54172;BME280;40076;52.354;4.970;2022-08-11T15:17:55;102121.09;;;29.84;34.96
54172;BME280;40076;52.354;4.970;2022-08-11T15:20:21;102117.88;;;29.85;34.82
54172;BME280;40076;52.354;4.970;2022-08-11T15:23:07;102115.06;;;29.89;35.04
54172;BME280;40076;52.354;4.970;2022-08-11T15:25:56;102111.81;;;29.94;35.36
54172;BME280;40076;52.354;4.970;2022-08-11T15:28:23;102111.34;;;29.99;34.80
54172;BME280;40076;52.354;4.970;2022-08-11T15:31:09;102110.53;;;29.99;35.13
54172;BME280;40076;52.354;4.970;2022-08-11T15:34:06;102106.22;;;29.98;34.28
54172;BME280;40076;52.354;4.970;2022-08-11T15:36:57;102097.84;;;29.98;35.08
54172;BME280;40076;52.354;4.970;2022-08-11T15:39:48;102096.59;;;29.99;34.78
54172;BME280;40076;52.354;4.970;2022-08-11T15:43:24;102095.78;;;30.02;35.45
54172;BME280;40076;52.354;4.970;2022-08-11T15:45:43;102090.56;;;30.04;34.90
54172;BME280;40076;52.354;4.970;2022-08-11T15:48:38;102087.78;;;30.04;35.53
54172;BME280;40076;52.354;4.970;2022-08-11T15:51:16;102081.78;;;30.05;35.49
54172;BME280;40076;52.354;4.970;2022-08-11T15:53:51;102082.94;;;30.08;35.57
54172;BME280;40076;52.354;4.970;2022-08-11T15:56:17;102076.53;;;30.11;34.94
54172;BME280;40076;52.354;4.970;2022-08-11T15:58:46;102074.91;;;30.13;34.93
54172;BME280;40076;52.354;4.970;2022-08-11T16:01:31;102076.81;;;30.16;35.13
54172;BME280;40076;52.354;4.970;2022-08-11T16:04:21;102072.81;;;30.17;35.51
54172;BME280;40076;52.354;4.970;2022-08-11T16:06:59;102076.03;;;30.16;35.02
54172;BME280;40076;52.354;4.970;2022-08-11T16:09:34;102071.25;;;30.16;34.89
54172;BME280;40076;52.354;4.970;2022-08-11T16:12:07;102073.53;;;30.21;34.76
54172;BME280;40076;52.354;4.970;2022-08-11T16:14:36;102069.53;;;30.22;35.06
54172;BME280;40076;52.354;4.970;2022-08-11T16:17:25;102078.34;;;30.21;34.88
54172;BME280;40076;52.354;4.970;2022-08-11T16:19:52;102066.81;;;30.19;35.16
54172;BME280;40076;52.354;4.970;2022-08-11T16:22:29;102070.41;;;30.19;35.45